Terminal Aerodrome Forecast
Issued by NWS Blacksburg, VA

Home | Current Version | Previous Version | Text Only | Print | Product List | Glossary On
Versions: 1 2 3 4 5 6 7 8 9 10 11 12 13 14 15 16 17 18 19 20 21 22 23 24 25 26 27 28 29 30 31 32 33 34 35 36
000
FTUS41 KRNK 260520
TAFLYH
TAF
KLYH 260520Z 2606/2706 15006KT P6SM OVC070
     FM260900 13006KT 5SM -RA BR OVC025
     FM261100 09005KT 2SM -RA BR BKN007 OVC015
     FM261600 01005KT 2SM -RA BR OVC008
     FM270200 36010KT 4SM -RA BR OVC018=

USA.gov is the U.S. government's official web portal to all federal, state and local government web resources and services.